sensor_id;sensor_type;location;lat;lon;timestamp;noise_LAeq;noise_LA_min;noise_LA_max;noise_LA01;noise_LA95
71030;Laerm;63723;51.436;5.976;2023-01-05T00:00:03;51.08;49.58;52.30;;
71030;Laerm;63723;51.436;5.976;2023-01-05T00:00:13;51.17;49.66;52.57;;
71030;Laerm;63723;51.436;5.976;2023-01-05T00:00:24;51.24;49.31;52.76;;
71030;Laerm;63723;51.436;5.976;2023-01-05T00:00:34;53.78;49.49;66.71;;
71030;Laerm;63723;51.436;5.976;2023-01-05T00:00:44;53.29;51.27;57.65;;
71030;Laerm;63723;51.436;5.976;2023-01-05T00:00:54;52.95;51.28;55.04;;
71030;Laerm;63723;51.436;5.976;2023-01-05T00:01:06;52.85;50.44;54.79;;
71030;Laerm;63723;51.436;5.976;2023-01-05T00:01:16;52.72;50.50;54.79;;
71030;Laerm;63723;51.436;5.976;2023-01-05T00:01:27;52.62;50.34;54.85;;
71030;Laerm;63723;51.436;5.976;2023-01-05T00:01:37;53.20;51.15;55.95;;
71030;Laerm;63723;51.436;5.976;2023-01-05T00:01:47;52.78;51.08;54.97;;
71030;Laerm;63723;51.436;5.976;2023-01-05T00:01:58;53.10;51.02;56.61;;
71030;Laerm;63723;51.436;5.976;2023-01-05T00:02:08;55.58;52.32;65.55;;
71030;Laerm;63723;51.436;5.976;2023-01-05T00:02:18;55.85;53.24;58.38;;
71030;Laerm;63723;51.436;5.976;2023-01-05T00:02:28;55.54;50.95;59.61;;
71030;Laerm;63723;51.436;5.976;2023-01-05T00:02:39;55.38;51.93;60.73;;
71030;Laerm;63723;51.436;5.976;2023-01-05T00:02:49;55.77;50.22;59.26;;
71030;Laerm;63723;51.436;5.976;2023-01-05T00:02:59;53.35;50.68;56.01;;
71030;Laerm;63723;51.436;5.976;2023-01-05T00:03:10;53.18;50.97;55.40;;
71030;Laerm;63723;51.436;5.976;2023-01-05T00:03:20;52.90;50.87;55.24;;
71030;Laerm;63723;51.436;5.976;2023-01-05T00:03:30;54.65;51.69;59.29;;
71030;Laerm;63723;51.436;5.976;2023-01-05T00:03:41;53.11;50.01;59.70;;
71030;Laerm;63723;51.436;5.976;2023-01-05T00:03:51;52.67;51.09;55.10;;
71030;Laerm;63723;51.436;5.976;2023-01-05T00:04:02;53.22;50.28;65.80;;
71030;Laerm;63723;51.436;5.976;2023-01-05T00:04:13;53.45;51.05;60.67;;
71030;Laerm;63723;51.436;5.976;2023-01-05T00:04:23;54.50;51.19;58.47;;
71030;Laerm;63723;51.436;5.976;2023-01-05T00:04:34;52.59;50.45;60.23;;
71030;Laerm;63723;51.436;5.976;2023-01-05T00:04:44;52.13;50.36;54.52;;
71030;Laerm;63723;51.436;5.976;2023-01-05T00:04:54;52.29;50.27;54.97;;
71030;Laerm;63723;51.436;5.976;2023-01-05T00:05:05;52.86;49.95;60.69;;
71030;Laerm;63723;51.436;5.976;2023-01-05T00:05:15;52.76;50.97;56.96;;
71030;Laerm;63723;51.436;5.976;2023-01-05T00:05:25;52.46;50.97;53.83;;
71030;Laerm;63723;51.436;5.976;2023-01-05T00:05:35;52.75;51.00;60.45;;
71030;Laerm;63723;51.436;5.976;2023-01-05T00:05:46;53.78;51.14;57.11;;
71030;Laerm;63723;51.436;5.976;2023-01-05T00:05:59;55.63;50.92;57.97;;
71030;Laerm;63723;51.436;5.976;2023-01-05T00:06:11;56.24;52.55;63.33;;
71030;Laerm;63723;51.436;5.976;2023-01-05T00:06:21;52.74;49.94;56.24;;
71030;Laerm;63723;51.436;5.976;2023-01-05T00:06:32;51.25;49.59;54.98;;
71030;Laerm;63723;51.436;5.976;2023-01-05T00:06:42;51.68;50.03;54.76;;
71030;Laerm;63723;51.436;5.976;2023-01-05T00:06:52;53.82;49.88;62.43;;
71030;Laerm;63723;51.436;5.976;2023-01-05T00:07:03;51.83;50.08;55.54;;
71030;Laerm;63723;51.436;5.976;2023-01-05T00:07:13;52.76;50.96;55.12;;
71030;Laerm;63723;51.436;5.976;2023-01-05T00:07:23;52.98;50.63;56.03;;
71030;Laerm;63723;51.436;5.976;2023-01-05T00:07:33;53.03;50.77;55.26;;
71030;Laerm;63723;51.436;5.976;2023-01-05T00:07:44;52.43;50.03;55.24;;
71030;Laerm;63723;51.436;5.976;2023-01-05T00:07:54;51.28;49.36;53.96;;
71030;Laerm;63723;51.436;5.976;2023-01-05T00:08:04;51.00;49.54;52.77;;
71030;Laerm;63723;51.436;5.976;2023-01-05T00:08:14;50.65;49.25;54.82;;
71030;Laerm;63723;51.436;5.976;2023-01-05T00:08:25;51.23;49.77;57.18;;
71030;Laerm;63723;51.436;5.976;2023-01-05T00:08:35;51.78;49.75;54.13;;
71030;Laerm;63723;51.436;5.976;2023-01-05T00:08:46;52.36;50.18;54.22;;
71030;Laerm;63723;51.436;5.976;2023-01-05T00:08:57;51.46;49.96;54.41;;
71030;Laerm;63723;51.436;5.976;2023-01-05T00:09:08;51.95;50.23;54.21;;
71030;Laerm;63723;51.436;5.976;2023-01-05T00:09:19;52.11;50.18;54.46;;
71030;Laerm;63723;51.436;5.976;2023-01-05T00:09:29;52.26;50.02;57.48;;
71030;Laerm;63723;51.436;5.976;2023-01-05T00:09:40;54.57;50.81;61.12;;
71030;Laerm;63723;51.436;5.976;2023-01-05T00:09:50;55.61;50.40;62.08;;
71030;Laerm;63723;51.436;5.976;2023-01-05T00:10:00;54.45;51.66;58.71;;
71030;Laerm;63723;51.436;5.976;2023-01-05T00:10:10;54.30;51.69;57.08;;
71030;Laerm;63723;51.436;5.976;2023-01-05T00:10:41;54.92;51.80;61.83;;
71030;Laerm;63723;51.436;5.976;2023-01-05T00:11:10;53.24;51.08;57.23;;
71030;Laerm;63723;51.436;5.976;2023-01-05T00:11:39;52.96;50.84;60.60;;
71030;Laerm;63723;51.436;5.976;2023-01-05T00:12:10;60.19;51.48;65.39;;
71030;Laerm;63723;51.436;5.976;2023-01-05T00:12:39;61.79;50.78;66.37;;
71030;Laerm;63723;51.436;5.976;2023-01-05T00:13:07;55.52;50.57;61.63;;
71030;Laerm;63723;51.436;5.976;2023-01-05T00:13:37;55.37;51.34;59.67;;
71030;Laerm;63723;51.436;5.976;2023-01-05T00:14:06;54.84;49.99;61.33;;
71030;Laerm;63723;51.436;5.976;2023-01-05T00:14:35;55.16;50.65;60.52;;
71030;Laerm;63723;51.436;5.976;2023-01-05T00:15:04;53.70;50.55;63.48;;
71030;Laerm;63723;51.436;5.976;2023-01-05T00:15:33;53.75;51.25;59.27;;
71030;Laerm;63723;51.436;5.976;2023-01-05T00:16:02;54.20;51.82;63.07;;
71030;Laerm;63723;51.436;5.976;2023-01-05T00:16:30;53.31;50.79;59.74;;
71030;Laerm;63723;51.436;5.976;2023-01-05T00:16:59;53.94;49.81;65.34;;
71030;Laerm;63723;51.436;5.976;2023-01-05T00:17:28;53.26;50.05;62.70;;
71030;Laerm;63723;51.436;5.976;2023-01-05T00:17:57;54.16;49.58;71.47;;
71030;Laerm;63723;51.436;5.976;2023-01-05T00:18:40;54.70;49.69;69.36;;
71030;Laerm;63723;51.436;5.976;2023-01-05T00:19:11;55.65;50.21;60.65;;
71030;Laerm;63723;51.436;5.976;2023-01-05T00:19:40;59.71;50.66;70.57;;
71030;Laerm;63723;51.436;5.976;2023-01-05T00:20:13;56.26;49.92;67.42;;
71030;Laerm;63723;51.436;5.976;2023-01-05T00:20:43;55.49;50.67;61.82;;
71030;Laerm;63723;51.436;5.976;2023-01-05T00:21:12;57.90;52.84;64.82;;
71030;Laerm;63723;51.436;5.976;2023-01-05T00:21:41;56.07;52.21;62.55;;
71030;Laerm;63723;51.436;5.976;2023-01-05T00:22:14;56.10;52.44;60.29;;
71030;Laerm;63723;51.436;5.976;2023-01-05T00:22:44;58.21;51.22;72.16;;
71030;Laerm;63723;51.436;5.976;2023-01-05T00:22:54;53.00;49.61;57.97;;
71030;Laerm;63723;51.436;5.976;2023-01-05T00:23:04;53.05;49.99;56.87;;
71030;Laerm;63723;51.436;5.976;2023-01-05T00:23:15;55.74;51.30;60.84;;
71030;Laerm;63723;51.436;5.976;2023-01-05T00:23:26;56.36;52.83;60.90;;
71030;Laerm;63723;51.436;5.976;2023-01-05T00:23:36;53.93;51.05;57.75;;
71030;Laerm;63723;51.436;5.976;2023-01-05T00:23:47;53.05;50.68;59.16;;
71030;Laerm;63723;51.436;5.976;2023-01-05T00:23:57;57.68;50.52;68.10;;
71030;Laerm;63723;51.436;5.976;2023-01-05T00:24:07;53.44;50.22;59.92;;
71030;Laerm;63723;51.436;5.976;2023-01-05T00:24:17;56.38;50.04;66.04;;
71030;Laerm;63723;51.436;5.976;2023-01-05T00:24:28;55.87;52.26;63.48;;
71030;Laerm;63723;51.436;5.976;2023-01-05T00:24:38;54.71;51.05;63.69;;
71030;Laerm;63723;51.436;5.976;2023-01-05T00:24:49;54.31;51.93;58.05;;
71030;Laerm;63723;51.436;5.976;2023-01-05T00:25:09;55.64;52.85;64.99;;
71030;Laerm;63723;51.436;5.976;2023-01-05T00:25:22;55.54;52.53;64.31;;
71030;Laerm;63723;51.436;5.976;2023-01-05T00:25:35;55.81;52.65;64.34;;
71030;Laerm;63723;51.436;5.976;2023-01-05T00:25:46;56.64;52.00;65.67;;
71030;Laerm;63723;51.436;5.976;2023-01-05T00:25:56;57.38;54.47;63.10;;
71030;Laerm;63723;51.436;5.976;2023-01-05T00:26:06;57.89;53.97;64.32;;
71030;Laerm;63723;51.436;5.976;2023-01-05T00:26:17;57.56;51.42;65.64;;
71030;Laerm;63723;51.436;5.976;2023-01-05T00:26:27;56.40;51.73;59.91;;
71030;Laerm;63723;51.436;5.976;2023-01-05T00:26:37;54.29;51.66;62.60;;
71030;Laerm;63723;51.436;5.976;2023-01-05T00:26:47;55.85;53.62;60.60;;
71030;Laerm;63723;51.436;5.976;2023-01-05T00:26:58;54.75;50.49;57.95;;
71030;Laerm;63723;51.436;5.976;2023-01-05T00:27:08;54.16;49.51;58.71;;
71030;Laerm;63723;51.436;5.976;2023-01-05T00:27:18;54.06;49.46;67.44;;
71030;Laerm;63723;51.436;5.976;2023-01-05T00:27:29;55.00;49.40;57.93;;
71030;Laerm;63723;51.436;5.976;2023-01-05T00:27:40;54.26;49.35;58.53;;
71030;Laerm;63723;51.436;5.976;2023-01-05T00:27:51;54.75;49.34;66.89;;
71030;Laerm;63723;51.436;5.976;2023-01-05T00:28:02;57.10;49.76;59.66;;
71030;Laerm;63723;51.436;5.976;2023-01-05T00:28:13;57.47;53.11;59.40;;
71030;Laerm;63723;51.436;5.976;2023-01-05T00:28:23;58.33;56.05;66.80;;
71030;Laerm;63723;51.436;5.976;2023-01-05T00:28:34;58.55;54.04;61.18;;
71030;Laerm;63723;51.436;5.976;2023-01-05T00:28:44;59.08;50.17;61.13;;
71030;Laerm;63723;51.436;5.976;2023-01-05T00:28:54;57.89;49.89;60.86;;
71030;Laerm;63723;51.436;5.976;2023-01-05T00:29:04;57.69;49.99;61.02;;
71030;Laerm;63723;51.436;5.976;2023-01-05T00:29:15;57.92;49.69;63.20;;
71030;Laerm;63723;51.436;5.976;2023-01-05T00:29:25;56.16;50.60;61.56;;
71030;Laerm;63723;51.436;5.976;2023-01-05T00:29:35;53.31;48.97;62.95;;
71030;Laerm;63723;51.436;5.976;2023-01-05T00:29:45;57.07;49.46;68.11;;
71030;Laerm;63723;51.436;5.976;2023-01-05T00:29:56;52.65;49.21;62.88;;
71030;Laerm;63723;51.436;5.976;2023-01-05T00:30:07;53.90;49.69;64.33;;
71030;Laerm;63723;51.436;5.976;2023-01-05T00:30:22;54.83;50.71;64.28;;
71030;Laerm;63723;51.436;5.976;2023-01-05T00:30:39;52.69;49.32;62.40;;
71030;Laerm;63723;51.436;5.976;2023-01-05T00:30:50;52.15;48.50;59.93;;
71030;Laerm;63723;51.436;5.976;2023-01-05T00:31:00;50.39;48.52;55.79;;
71030;Laerm;63723;51.436;5.976;2023-01-05T00:31:10;50.99;49.35;53.44;;
71030;Laerm;63723;51.436;5.976;2023-01-05T00:31:20;51.12;49.19;53.61;;
71030;Laerm;63723;51.436;5.976;2023-01-05T00:31:30;51.94;50.32;57.95;;
71030;Laerm;63723;51.436;5.976;2023-01-05T00:31:41;51.63;50.13;53.81;;
71030;Laerm;63723;51.436;5.976;2023-01-05T00:31:51;51.71;50.06;53.73;;
71030;Laerm;63723;51.436;5.976;2023-01-05T00:32:01;52.34;50.51;54.67;;
71030;Laerm;63723;51.436;5.976;2023-01-05T00:32:11;51.74;50.17;54.60;;
71030;Laerm;63723;51.436;5.976;2023-01-05T00:32:22;52.31;50.19;54.27;;
71030;Laerm;63723;51.436;5.976;2023-01-05T00:32:32;52.16;49.65;54.49;;
71030;Laerm;63723;51.436;5.976;2023-01-05T00:32:42;51.84;49.98;56.14;;
71030;Laerm;63723;51.436;5.976;2023-01-05T00:32:53;52.87;51.06;57.79;;
71030;Laerm;63723;51.436;5.976;2023-01-05T00:33:06;53.22;50.83;57.30;;
71030;Laerm;63723;51.436;5.976;2023-01-05T00:33:16;51.34;49.70;56.85;;
71030;Laerm;63723;51.436;5.976;2023-01-05T00:33:27;51.00;49.25;55.38;;
71030;Laerm;63723;51.436;5.976;2023-01-05T00:33:37;51.26;49.23;56.94;;
71030;Laerm;63723;51.436;5.976;2023-01-05T00:33:47;51.35;49.40;56.02;;
71030;Laerm;63723;51.436;5.976;2023-01-05T00:33:57;51.35;49.74;56.06;;
71030;Laerm;63723;51.436;5.976;2023-01-05T00:34:07;51.42;49.66;55.83;;
71030;Laerm;63723;51.436;5.976;2023-01-05T00:34:18;51.13;49.48;55.88;;
71030;Laerm;63723;51.436;5.976;2023-01-05T00:34:28;51.35;49.37;56.77;;
71030;Laerm;63723;51.436;5.976;2023-01-05T00:34:38;51.63;49.45;55.31;;
71030;Laerm;63723;51.436;5.976;2023-01-05T00:34:49;51.93;49.31;56.19;;
71030;Laerm;63723;51.436;5.976;2023-01-05T00:35:00;51.50;49.54;56.69;;
71030;Laerm;63723;51.436;5.976;2023-01-05T00:35:11;51.54;49.01;55.95;;
71030;Laerm;63723;51.436;5.976;2023-01-05T00:35:22;51.16;49.40;54.53;;
71030;Laerm;63723;51.436;5.976;2023-01-05T00:35:33;50.43;48.94;52.79;;
71030;Laerm;63723;51.436;5.976;2023-01-05T00:35:43;50.89;49.38;56.38;;
71030;Laerm;63723;51.436;5.976;2023-01-05T00:35:53;50.80;49.03;52.96;;
71030;Laerm;63723;51.436;5.976;2023-01-05T00:36:07;52.09;49.37;55.08;;
71030;Laerm;63723;51.436;5.976;2023-01-05T00:36:18;50.50;49.01;54.52;;
71030;Laerm;63723;51.436;5.976;2023-01-05T00:36:28;50.62;48.87;54.80;;
71030;Laerm;63723;51.436;5.976;2023-01-05T00:36:39;49.98;48.52;53.69;;
71030;Laerm;63723;51.436;5.976;2023-01-05T00:36:49;50.00;48.53;54.68;;
71030;Laerm;63723;51.436;5.976;2023-01-05T00:37:00;50.04;48.82;51.53;;
71030;Laerm;63723;51.436;5.976;2023-01-05T00:37:10;50.84;49.07;53.66;;
71030;Laerm;63723;51.436;5.976;2023-01-05T00:37:24;50.82;49.16;53.34;;
71030;Laerm;63723;51.436;5.976;2023-01-05T00:37:34;50.79;49.29;53.98;;
71030;Laerm;63723;51.436;5.976;2023-01-05T00:37:45;51.68;49.78;54.46;;
71030;Laerm;63723;51.436;5.976;2023-01-05T00:37:55;51.39;49.24;56.63;;
71030;Laerm;63723;51.436;5.976;2023-01-05T00:38:06;52.41;50.45;56.27;;
71030;Laerm;63723;51.436;5.976;2023-01-05T00:38:16;52.22;50.53;53.80;;
71030;Laerm;63723;51.436;5.976;2023-01-05T00:38:27;52.27;50.62;55.31;;
71030;Laerm;63723;51.436;5.976;2023-01-05T00:38:37;52.21;50.54;54.05;;
71030;Laerm;63723;51.436;5.976;2023-01-05T00:38:47;52.08;50.71;54.57;;
71030;Laerm;63723;51.436;5.976;2023-01-05T00:38:57;52.30;50.74;55.40;;
71030;Laerm;63723;51.436;5.976;2023-01-05T00:39:08;51.58;49.67;56.91;;
71030;Laerm;63723;51.436;5.976;2023-01-05T00:39:18;51.32;49.27;54.02;;
71030;Laerm;63723;51.436;5.976;2023-01-05T00:39:28;54.53;49.99;59.95;;
71030;Laerm;63723;51.436;5.976;2023-01-05T00:39:38;51.58;49.19;54.87;;
71030;Laerm;63723;51.436;5.976;2023-01-05T00:39:49;51.67;50.03;53.95;;
71030;Laerm;63723;51.436;5.976;2023-01-05T00:39:59;52.33;50.60;55.13;;
71030;Laerm;63723;51.436;5.976;2023-01-05T00:40:10;52.58;49.98;56.57;;
71030;Laerm;63723;51.436;5.976;2023-01-05T00:40:21;51.29;49.32;53.66;;
71030;Laerm;63723;51.436;5.976;2023-01-05T00:40:33;51.82;49.50;54.98;;
71030;Laerm;63723;51.436;5.976;2023-01-05T00:40:43;51.39;49.85;53.04;;
71030;Laerm;63723;51.436;5.976;2023-01-05T00:40:54;51.39;50.05;55.06;;
71030;Laerm;63723;51.436;5.976;2023-01-05T00:41:04;51.48;49.88;53.61;;
71030;Laerm;63723;51.436;5.976;2023-01-05T00:41:14;51.55;49.93;54.96;;
71030;Laerm;63723;51.436;5.976;2023-01-05T00:41:25;51.47;49.76;53.38;;
71030;Laerm;63723;51.436;5.976;2023-01-05T00:41:35;52.03;50.38;54.34;;
71030;Laerm;63723;51.436;5.976;2023-01-05T00:41:45;51.94;49.91;53.82;;
71030;Laerm;63723;51.436;5.976;2023-01-05T00:41:55;51.52;50.23;53.51;;
71030;Laerm;63723;51.436;5.976;2023-01-05T00:42:06;51.83;49.90;58.46;;
71030;Laerm;63723;51.436;5.976;2023-01-05T00:42:16;51.15;49.25;54.31;;
71030;Laerm;63723;51.436;5.976;2023-01-05T00:42:26;53.08;50.48;56.19;;
71030;Laerm;63723;51.436;5.976;2023-01-05T00:42:37;53.28;50.32;57.27;;
71030;Laerm;63723;51.436;5.976;2023-01-05T00:42:47;53.84;50.22;57.15;;
71030;Laerm;63723;51.436;5.976;2023-01-05T00:42:57;53.90;50.49;56.75;;
71030;Laerm;63723;51.436;5.976;2023-01-05T00:43:08;53.13;50.35;56.80;;
71030;Laerm;63723;51.436;5.976;2023-01-05T00:43:18;52.24;49.97;54.28;;
71030;Laerm;63723;51.436;5.976;2023-01-05T00:43:28;52.29;50.27;53.86;;
71030;Laerm;63723;51.436;5.976;2023-01-05T00:43:38;51.60;49.46;52.98;;
71030;Laerm;63723;51.436;5.976;2023-01-05T00:43:49;52.39;50.08;54.96;;
71030;Laerm;63723;51.436;5.976;2023-01-05T00:43:59;52.52;49.52;55.55;;
71030;Laerm;63723;51.436;5.976;2023-01-05T00:44:09;51.74;50.04;53.54;;
71030;Laerm;63723;51.436;5.976;2023-01-05T00:44:19;52.10;49.99;55.09;;
71030;Laerm;63723;51.436;5.976;2023-01-05T00:44:30;52.83;50.53;55.01;;
71030;Laerm;63723;51.436;5.976;2023-01-05T00:44:40;51.17;49.25;53.36;;
71030;Laerm;63723;51.436;5.976;2023-01-05T00:44:50;50.64;49.15;52.12;;
71030;Laerm;63723;51.436;5.976;2023-01-05T00:45:00;50.62;49.27;51.90;;
71030;Laerm;63723;51.436;5.976;2023-01-05T00:45:11;52.44;49.29;56.67;;
71030;Laerm;63723;51.436;5.976;2023-01-05T00:45:22;55.19;51.22;57.42;;
71030;Laerm;63723;51.436;5.976;2023-01-05T00:45:32;51.80;49.47;55.63;;
71030;Laerm;63723;51.436;5.976;2023-01-05T00:45:43;51.53;49.72;53.50;;
71030;Laerm;63723;51.436;5.976;2023-01-05T00:45:53;52.09;49.83;54.71;;
71030;Laerm;63723;51.436;5.976;2023-01-05T00:46:03;52.19;50.01;54.07;;
71030;Laerm;63723;51.436;5.976;2023-01-05T00:46:14;51.16;49.25;54.24;;
71030;Laerm;63723;51.436;5.976;2023-01-05T00:46:24;50.29;49.00;51.43;;
71030;Laerm;63723;51.436;5.976;2023-01-05T00:46:34;50.34;49.00;51.45;;
71030;Laerm;63723;51.436;5.976;2023-01-05T00:46:45;50.47;49.06;53.06;;
71030;Laerm;63723;51.436;5.976;2023-01-05T00:46:55;51.17;49.21;58.78;;
71030;Laerm;63723;51.436;5.976;2023-01-05T00:47:05;50.82;49.09;54.84;;
71030;Laerm;63723;51.436;5.976;2023-01-05T00:47:15;54.91;49.66;60.96;;
71030;Laerm;63723;51.436;5.976;2023-01-05T00:47:26;54.54;50.05;60.08;;
71030;Laerm;63723;51.436;5.976;2023-01-05T00:47:36;55.45;51.40;59.80;;
71030;Laerm;63723;51.436;5.976;2023-01-05T00:47:46;52.30;50.35;57.99;;
71030;Laerm;63723;51.436;5.976;2023-01-05T00:47:57;52.14;49.84;58.03;;
71030;Laerm;63723;51.436;5.976;2023-01-05T00:48:07;52.26;50.28;55.26;;
71030;Laerm;63723;51.436;5.976;2023-01-05T00:48:17;52.41;49.60;55.42;;
71030;Laerm;63723;51.436;5.976;2023-01-05T00:48:27;52.38;50.73;54.95;;
71030;Laerm;63723;51.436;5.976;2023-01-05T00:48:38;52.27;50.68;54.33;;
71030;Laerm;63723;51.436;5.976;2023-01-05T00:48:48;52.83;48.85;59.39;;
71030;Laerm;63723;51.436;5.976;2023-01-05T00:48:58;53.35;50.80;59.14;;
71030;Laerm;63723;51.436;5.976;2023-01-05T00:49:08;53.66;49.01;59.00;;
71030;Laerm;63723;51.436;5.976;2023-01-05T00:49:19;55.40;48.76;58.76;;
71030;Laerm;63723;51.436;5.976;2023-01-05T00:49:29;54.88;50.23;59.10;;
71030;Laerm;63723;51.436;5.976;2023-01-05T00:49:39;54.32;51.44;57.43;;
71030;Laerm;63723;51.436;5.976;2023-01-05T00:49:49;54.30;51.27;56.67;;
71030;Laerm;63723;51.436;5.976;2023-01-05T00:50:00;55.42;52.11;58.41;;
71030;Laerm;63723;51.436;5.976;2023-01-05T00:50:12;56.27;53.42;59.75;;
71030;Laerm;63723;51.436;5.976;2023-01-05T00:50:22;56.73;53.70;60.66;;
71030;Laerm;63723;51.436;5.976;2023-01-05T00:50:33;57.76;52.84;61.08;;
71030;Laerm;63723;51.436;5.976;2023-01-05T00:50:44;55.50;52.25;59.01;;
71030;Laerm;63723;51.436;5.976;2023-01-05T00:50:55;55.06;51.00;58.71;;
71030;Laerm;63723;51.436;5.976;2023-01-05T00:51:05;57.28;51.14;62.35;;
71030;Laerm;63723;51.436;5.976;2023-01-05T00:51:15;58.49;53.86;62.59;;
71030;Laerm;63723;51.436;5.976;2023-01-05T00:51:25;55.21;52.09;58.94;;
71030;Laerm;63723;51.436;5.976;2023-01-05T00:51:35;55.48;50.86;57.99;;
71030;Laerm;63723;51.436;5.976;2023-01-05T00:51:46;55.59;50.71;58.75;;
71030;Laerm;63723;51.436;5.976;2023-01-05T00:51:56;52.16;50.20;55.98;;
71030;Laerm;63723;51.436;5.976;2023-01-05T00:52:06;52.51;50.58;54.54;;
71030;Laerm;63723;51.436;5.976;2023-01-05T00:52:17;51.85;50.10;56.66;;
71030;Laerm;63723;51.436;5.976;2023-01-05T00:52:27;52.47;50.36;56.29;;
71030;Laerm;63723;51.436;5.976;2023-01-05T00:52:37;52.21;50.20;55.44;;
71030;Laerm;63723;51.436;5.976;2023-01-05T00:52:47;51.87;49.51;54.85;;
71030;Laerm;63723;51.436;5.976;2023-01-05T00:52:58;51.39;49.61;56.76;;
71030;Laerm;63723;51.436;5.976;2023-01-05T00:53:08;51.45;49.71;55.46;;
71030;Laerm;63723;51.436;5.976;2023-01-05T00:53:18;51.41;49.78;54.51;;
71030;Laerm;63723;51.436;5.976;2023-01-05T00:53:28;52.14;49.99;54.31;;
71030;Laerm;63723;51.436;5.976;2023-01-05T00:53:39;52.51;50.50;55.10;;
71030;Laerm;63723;51.436;5.976;2023-01-05T00:53:49;51.52;49.90;54.96;;
71030;Laerm;63723;51.436;5.976;2023-01-05T00:53:59;53.38;49.92;58.79;;
71030;Laerm;63723;51.436;5.976;2023-01-05T00:54:09;56.32;53.15;58.92;;
71030;Laerm;63723;51.436;5.976;2023-01-05T00:54:20;59.28;56.36;62.39;;
71030;Laerm;63723;51.436;5.976;2023-01-05T00:54:30;56.92;50.60;61.69;;
71030;Laerm;63723;51.436;5.976;2023-01-05T00:54:40;53.44;51.03;56.20;;
71030;Laerm;63723;51.436;5.976;2023-01-05T00:54:50;53.39;49.32;56.59;;
71030;Laerm;63723;51.436;5.976;2023-01-05T00:55:01;53.19;50.86;56.79;;
71030;Laerm;63723;51.436;5.976;2023-01-05T00:55:11;53.78;51.10;57.02;;
71030;Laerm;63723;51.436;5.976;2023-01-05T00:55:21;53.82;51.85;56.57;;
71030;Laerm;63723;51.436;5.976;2023-01-05T00:55:32;53.76;51.51;56.21;;
71030;Laerm;63723;51.436;5.976;2023-01-05T00:55:42;53.91;51.17;56.79;;
71030;Laerm;63723;51.436;5.976;2023-01-05T00:55:55;53.81;50.60;56.70;;
71030;Laerm;63723;51.436;5.976;2023-01-05T00:56:06;53.82;51.08;61.08;;
71030;Laerm;63723;51.436;5.976;2023-01-05T00:56:16;54.15;52.09;60.46;;
71030;Laerm;63723;51.436;5.976;2023-01-05T00:56:26;54.24;51.75;57.08;;
71030;Laerm;63723;51.436;5.976;2023-01-05T00:56:37;53.82;51.10;56.48;;
71030;Laerm;63723;51.436;5.976;2023-01-05T00:56:47;54.28;52.06;56.66;;
71030;Laerm;63723;51.436;5.976;2023-01-05T00:57:00;54.29;52.00;60.11;;
71030;Laerm;63723;51.436;5.976;2023-01-05T00:57:11;54.12;51.56;56.57;;
71030;Laerm;63723;51.436;5.976;2023-01-05T00:57:21;53.88;51.86;55.86;;
71030;Laerm;63723;51.436;5.976;2023-01-05T00:57:31;54.34;51.66;57.18;;
71030;Laerm;63723;51.436;5.976;2023-01-05T00:57:42;54.11;52.08;56.75;;
71030;Laerm;63723;51.436;5.976;2023-01-05T00:57:52;53.91;52.16;55.98;;
71030;Laerm;63723;51.436;5.976;2023-01-05T00:58:02;53.38;51.82;56.02;;
71030;Laerm;63723;51.436;5.976;2023-01-05T00:58:12;53.16;51.94;54.70;;
71030;Laerm;63723;51.436;5.976;2023-01-05T00:58:23;52.91;51.34;55.72;;
71030;Laerm;63723;51.436;5.976;2023-01-05T00:58:33;54.51;51.26;58.22;;
71030;Laerm;63723;51.436;5.976;2023-01-05T00:58:44;54.81;53.35;59.22;;
71030;Laerm;63723;51.436;5.976;2023-01-05T00:58:54;54.84;53.24;56.76;;
71030;Laerm;63723;51.436;5.976;2023-01-05T00:59:04;54.88;53.56;56.76;;
71030;Laerm;63723;51.436;5.976;2023-01-05T00:59:15;54.77;53.33;56.47;;
71030;Laerm;63723;51.436;5.976;2023-01-05T00:59:25;55.29;53.41;60.34;;
71030;Laerm;63723;51.436;5.976;2023-01-05T00:59:36;55.16;53.36;58.56;;
71030;Laerm;63723;51.436;5.976;2023-01-05T00:59:46;56.02;53.43;59.75;;
71030;Laerm;63723;51.436;5.976;2023-01-05T00:59:56;55.65;53.60;59.91;;
71030;Laerm;63723;51.436;5.976;2023-01-05T01:00:07;56.69;50.21;66.06;;
71030;Laerm;63723;51.436;5.976;2023-01-05T01:00:19;54.19;49.14;63.44;;
71030;Laerm;63723;51.436;5.976;2023-01-05T01:00:30;54.07;49.70;59.31;;
71030;Laerm;63723;51.436;5.976;2023-01-05T01:00:40;54.86;51.21;59.28;;
71030;Laerm;63723;51.436;5.976;2023-01-05T01:00:50;53.74;50.42;57.76;;
71030;Laerm;63723;51.436;5.976;2023-01-05T01:01:01;53.74;51.02;61.89;;
71030;Laerm;63723;51.436;5.976;2023-01-05T01:01:17;53.67;51.42;62.97;;
71030;Laerm;63723;51.436;5.976;2023-01-05T01:01:27;54.87;50.79;63.11;;
71030;Laerm;63723;51.436;5.976;2023-01-05T01:01:37;51.50;49.84;53.72;;
71030;Laerm;63723;51.436;5.976;2023-01-05T01:01:49;51.95;49.37;54.09;;
71030;Laerm;63723;51.436;5.976;2023-01-05T01:01:59;51.71;49.91;54.12;;
71030;Laerm;63723;51.436;5.976;2023-01-05T01:02:09;52.76;50.53;55.36;;
71030;Laerm;63723;51.436;5.976;2023-01-05T01:02:20;51.97;50.00;54.37;;
71030;Laerm;63723;51.436;5.976;2023-01-05T01:02:30;52.26;49.89;54.32;;
71030;Laerm;63723;51.436;5.976;2023-01-05T01:02:40;52.67;50.99;54.62;;
71030;Laerm;63723;51.436;5.976;2023-01-05T01:02:51;52.97;51.23;54.51;;
71030;Laerm;63723;51.436;5.976;2023-01-05T01:03:04;52.79;50.03;54.74;;
71030;Laerm;63723;51.436;5.976;2023-01-05T01:03:14;52.40;49.53;54.36;;
71030;Laerm;63723;51.436;5.976;2023-01-05T01:03:25;52.50;50.53;54.12;;
71030;Laerm;63723;51.436;5.976;2023-01-05T01:03:35;52.39;50.03;54.27;;
71030;Laerm;63723;51.436;5.976;2023-01-05T01:03:45;52.53;50.62;55.32;;
71030;Laerm;63723;51.436;5.976;2023-01-05T01:03:55;53.09;51.10;54.80;;
71030;Laerm;63723;51.436;5.976;2023-01-05T01:04:06;53.55;51.26;55.29;;
71030;Laerm;63723;51.436;5.976;2023-01-05T01:04:16;53.19;51.19;60.01;;
71030;Laerm;63723;51.436;5.976;2023-01-05T01:04:27;52.83;50.45;55.02;;
71030;Laerm;63723;51.436;5.976;2023-01-05T01:04:39;53.28;50.78;55.28;;
71030;Laerm;63723;51.436;5.976;2023-01-05T01:04:49;52.24;50.31;54.21;;
71030;Laerm;63723;51.436;5.976;2023-01-05T01:04:59;51.82;49.98;53.23;;
71030;Laerm;63723;51.436;5.976;2023-01-05T01:05:09;52.05;50.18;54.21;;
71030;Laerm;63723;51.436;5.976;2023-01-05T01:05:20;52.39;50.35;54.01;;
71030;Laerm;63723;51.436;5.976;2023-01-05T01:05:30;52.09;50.39;53.74;;
71030;Laerm;63723;51.436;5.976;2023-01-05T01:05:40;52.02;50.40;53.40;;
71030;Laerm;63723;51.436;5.976;2023-01-05T01:05:57;52.52;50.88;54.56;;
71030;Laerm;63723;51.436;5.976;2023-01-05T01:06:07;53.08;51.10;55.91;;
71030;Laerm;63723;51.436;5.976;2023-01-05T01:06:17;53.03;51.15;55.08;;
71030;Laerm;63723;51.436;5.976;2023-01-05T01:06:28;52.73;51.10;54.22;;
71030;Laerm;63723;51.436;5.976;2023-01-05T01:06:38;52.93;50.97;54.90;;
71030;Laerm;63723;51.436;5.976;2023-01-05T01:06:48;52.48;50.87;55.18;;
71030;Laerm;63723;51.436;5.976;2023-01-05T01:06:59;53.87;50.78;59.85;;
71030;Laerm;63723;51.436;5.976;2023-01-05T01:07:09;52.40;50.76;54.58;;
71030;Laerm;63723;51.436;5.976;2023-01-05T01:07:19;52.50;50.64;54.96;;